Ana Sayfa
METAR-TAF:

METAR-TAF

Havaalanları :

Richard Lloyd Jones Jr. Airport

Tulsa, Oklahoma, Amerika Birleşik Devletleri

Enlem: 36-02-33N, Boylam: 095-59-22W, yükseklik: 194 m

Güncel hava durumu gözlemi

Rapor saat 10:09 UTC de 11 dakika önce yapıldı.
Sakin rüzgar
Sıcaklık 7°C
Nem 87%
Basınç 1019 hPa
Görüş mesafesi: 8.0 km
400 ft yükseklikte çok bulutlu
Pus

METAR: KRVS 051009Z AUTO 00000KT 5SM BR OVC004 07/05 A3008 RMK AO2 CIG 004V007 T00670050

Saat: 05:20 (10:20 UTC)

Tahmin

Rapor saat 05:33 UTC de 4 saat ve 47 dakika önce yapıldı.
Ayın 05'si saat 06 UTC'den ayın 06'si saat 06 UTC'ye kadar geçerli Tahmin
Rüzgar kuzeydan kt
Görüş mesafesi: 4.8 km
400 ft yükseklikte çok bulutlu
Pus
Ayın 05'si saat 1600 UTC'den
Rüzgar güney/güneydoğudan 8 kt
Görüş mesafesi: 10 km
1500 ft yükseklikte çok bulutlu

TAF: KRVS 050533Z 0506/0606 00000KT 3SM BR OVC004 FM051600 16008KT P6SM OVC015

4.000'den fazla havaalanı için hava durumu gözlemleri ve tahminleri (METAR ve TAF raporları).

Kullanılabilir istasyonlar harita üzerinde sarı ve kırmızı noktalarla gösterilir.

İstasyonun adını görmek için fareyi noktanın üzerinde gezdirin.

Sonrasında hava gözlem ve tahminlerini görmek için tıklayın.

Haritayı değiştirmek için: yaklaştırmak için siyah artı işaretli yeşil düğmeye ve uzaklaştırmak için de eksi işaretli düğmeye hızla tıklayın; bitişik haritalar için yeşil okları kullanın.


METAR-TAF: